sensor_id;sensor_type;location;lat;lon;timestamp;temperature;humidity
14585;DHT22;7379;51.506;11.876;2023-03-12T00:01:09;2.60;69.80
14585;DHT22;7379;51.506;11.876;2023-03-12T00:03:36;2.60;69.70
14585;DHT22;7379;51.506;11.876;2023-03-12T00:06:05;2.60;69.70
14585;DHT22;7379;51.506;11.876;2023-03-12T00:08:33;2.60;69.80
14585;DHT22;7379;51.506;11.876;2023-03-12T00:11:05;2.60;69.80
14585;DHT22;7379;51.506;11.876;2023-03-12T00:13:32;2.60;69.80
14585;DHT22;7379;51.506;11.876;2023-03-12T00:16:03;2.60;69.80
14585;DHT22;7379;51.506;11.876;2023-03-12T00:18:29;2.60;69.80
14585;DHT22;7379;51.506;11.876;2023-03-12T00:20:56;2.60;69.80
14585;DHT22;7379;51.506;11.876;2023-03-12T00:23:23;2.60;69.80
14585;DHT22;7379;51.506;11.876;2023-03-12T00:25:51;2.60;69.80
14585;DHT22;7379;51.506;11.876;2023-03-12T00:28:18;2.60;69.80
14585;DHT22;7379;51.506;11.876;2023-03-12T00:30:45;2.50;69.80
14585;DHT22;7379;51.506;11.876;2023-03-12T00:33:12;2.50;69.70
14585;DHT22;7379;51.506;11.876;2023-03-12T00:35:39;2.50;69.80
14585;DHT22;7379;51.506;11.876;2023-03-12T00:38:05;2.50;69.80
14585;DHT22;7379;51.506;11.876;2023-03-12T00:40:32;2.50;69.80
14585;DHT22;7379;51.506;11.876;2023-03-12T00:43:00;2.50;69.90
14585;DHT22;7379;51.506;11.876;2023-03-12T00:45:27;2.50;69.80
14585;DHT22;7379;51.506;11.876;2023-03-12T00:47:54;2.50;69.80
14585;DHT22;7379;51.506;11.876;2023-03-12T00:50:21;2.50;69.90
14585;DHT22;7379;51.506;11.876;2023-03-12T00:52:47;2.50;69.90
14585;DHT22;7379;51.506;11.876;2023-03-12T00:55:14;2.50;69.90
14585;DHT22;7379;51.506;11.876;2023-03-12T00:57:41;2.50;70.00
14585;DHT22;7379;51.506;11.876;2023-03-12T01:00:11;2.50;69.90
14585;DHT22;7379;51.506;11.876;2023-03-12T01:02:38;2.50;69.90
14585;DHT22;7379;51.506;11.876;2023-03-12T01:05:07;2.50;70.00
14585;DHT22;7379;51.506;11.876;2023-03-12T01:07:36;2.50;69.90
14585;DHT22;7379;51.506;11.876;2023-03-12T01:10:03;2.40;69.90
14585;DHT22;7379;51.506;11.876;2023-03-12T01:12:41;2.40;69.80
14585;DHT22;7379;51.506;11.876;2023-03-12T01:15:10;2.40;69.90
14585;DHT22;7379;51.506;11.876;2023-03-12T01:17:38;2.40;69.80
14585;DHT22;7379;51.506;11.876;2023-03-12T01:20:06;2.40;69.90
14585;DHT22;7379;51.506;11.876;2023-03-12T01:22:34;2.40;69.90
14585;DHT22;7379;51.506;11.876;2023-03-12T01:25:01;2.40;69.90
14585;DHT22;7379;51.506;11.876;2023-03-12T01:27:28;2.40;69.90
14585;DHT22;7379;51.506;11.876;2023-03-12T01:29:55;2.40;69.90
14585;DHT22;7379;51.506;11.876;2023-03-12T01:32:23;2.40;69.90
14585;DHT22;7379;51.506;11.876;2023-03-12T01:34:50;2.40;69.80
14585;DHT22;7379;51.506;11.876;2023-03-12T01:37:17;2.40;69.90
14585;DHT22;7379;51.506;11.876;2023-03-12T01:39:43;2.40;69.90
14585;DHT22;7379;51.506;11.876;2023-03-12T01:42:10;2.40;69.90
14585;DHT22;7379;51.506;11.876;2023-03-12T01:44:54;2.30;69.80
14585;DHT22;7379;51.506;11.876;2023-03-12T01:47:23;2.30;69.90
14585;DHT22;7379;51.506;11.876;2023-03-12T01:49:51;2.30;69.90
14585;DHT22;7379;51.506;11.876;2023-03-12T01:52:21;2.30;69.90
14585;DHT22;7379;51.506;11.876;2023-03-12T01:54:52;2.30;69.90
14585;DHT22;7379;51.506;11.876;2023-03-12T01:57:23;2.30;69.80
14585;DHT22;7379;51.506;11.876;2023-03-12T01:59:52;2.30;69.80
14585;DHT22;7379;51.506;11.876;2023-03-12T02:02:20;2.30;69.80
14585;DHT22;7379;51.506;11.876;2023-03-12T02:04:58;2.30;69.80
14585;DHT22;7379;51.506;11.876;2023-03-12T02:07:28;2.30;69.80
14585;DHT22;7379;51.506;11.876;2023-03-12T02:09:55;2.30;69.80
14585;DHT22;7379;51.506;11.876;2023-03-12T02:12:22;2.30;69.80
14585;DHT22;7379;51.506;11.876;2023-03-12T02:14:49;2.30;69.80
14585;DHT22;7379;51.506;11.876;2023-03-12T02:17:16;2.30;69.90
14585;DHT22;7379;51.506;11.876;2023-03-12T02:19:49;2.30;69.80
14585;DHT22;7379;51.506;11.876;2023-03-12T02:22:19;2.20;69.70
14585;DHT22;7379;51.506;11.876;2023-03-12T02:24:53;2.20;69.70
14585;DHT22;7379;51.506;11.876;2023-03-12T02:27:24;2.20;69.70
14585;DHT22;7379;51.506;11.876;2023-03-12T02:29:51;2.20;69.70
14585;DHT22;7379;51.506;11.876;2023-03-12T02:32:22;2.20;69.70
14585;DHT22;7379;51.506;11.876;2023-03-12T02:34:50;2.20;69.70
14585;DHT22;7379;51.506;11.876;2023-03-12T02:37:17;2.20;69.70
14585;DHT22;7379;51.506;11.876;2023-03-12T02:39:50;2.20;69.70
14585;DHT22;7379;51.506;11.876;2023-03-12T02:42:20;2.20;69.70
14585;DHT22;7379;51.506;11.876;2023-03-12T02:44:48;2.20;69.80
14585;DHT22;7379;51.506;11.876;2023-03-12T02:47:15;2.20;69.70
14585;DHT22;7379;51.506;11.876;2023-03-12T02:49:42;2.20;69.70
14585;DHT22;7379;51.506;11.876;2023-03-12T02:52:09;2.20;69.70
14585;DHT22;7379;51.506;11.876;2023-03-12T02:54:35;2.20;69.70
14585;DHT22;7379;51.506;11.876;2023-03-12T02:57:02;2.20;69.70
14585;DHT22;7379;51.506;11.876;2023-03-12T02:59:29;2.10;69.60
14585;DHT22;7379;51.506;11.876;2023-03-12T03:01:59;2.10;69.60
14585;DHT22;7379;51.506;11.876;2023-03-12T03:04:27;2.10;69.60
14585;DHT22;7379;51.506;11.876;2023-03-12T03:06:54;2.10;69.60
14585;DHT22;7379;51.506;11.876;2023-03-12T03:09:21;2.10;69.60
14585;DHT22;7379;51.506;11.876;2023-03-12T03:11:49;2.10;69.70
14585;DHT22;7379;51.506;11.876;2023-03-12T03:14:16;2.10;69.70
14585;DHT22;7379;51.506;11.876;2023-03-12T03:16:43;2.10;69.70
14585;DHT22;7379;51.506;11.876;2023-03-12T03:19:11;2.10;69.70
14585;DHT22;7379;51.506;11.876;2023-03-12T03:21:38;2.10;69.70
14585;DHT22;7379;51.506;11.876;2023-03-12T03:24:05;2.10;69.70
14585;DHT22;7379;51.506;11.876;2023-03-12T03:26:32;2.10;69.70
14585;DHT22;7379;51.506;11.876;2023-03-12T03:28:59;2.10;69.70
14585;DHT22;7379;51.506;11.876;2023-03-12T03:31:26;2.10;70.50
14585;DHT22;7379;51.506;11.876;2023-03-12T03:33:53;2.10;69.80
14585;DHT22;7379;51.506;11.876;2023-03-12T03:36:21;2.00;70.40
14585;DHT22;7379;51.506;11.876;2023-03-12T03:38:48;2.00;69.70
14585;DHT22;7379;51.506;11.876;2023-03-12T03:41:16;2.00;69.70
14585;DHT22;7379;51.506;11.876;2023-03-12T03:43:43;2.00;69.70
14585;DHT22;7379;51.506;11.876;2023-03-12T03:46:11;2.10;69.70
14585;DHT22;7379;51.506;11.876;2023-03-12T03:48:39;2.00;69.60
14585;DHT22;7379;51.506;11.876;2023-03-12T03:51:06;2.00;69.60
14585;DHT22;7379;51.506;11.876;2023-03-12T03:53:35;2.00;69.60
14585;DHT22;7379;51.506;11.876;2023-03-12T03:56:06;2.00;69.60
14585;DHT22;7379;51.506;11.876;2023-03-12T03:58:33;2.00;69.60
14585;DHT22;7379;51.506;11.876;2023-03-12T04:01:00;2.00;69.50
14585;DHT22;7379;51.506;11.876;2023-03-12T04:03:27;2.00;69.50
14585;DHT22;7379;51.506;11.876;2023-03-12T04:05:54;2.00;69.50
14585;DHT22;7379;51.506;11.876;2023-03-12T04:08:21;2.00;69.50
14585;DHT22;7379;51.506;11.876;2023-03-12T04:10:49;2.00;69.60
14585;DHT22;7379;51.506;11.876;2023-03-12T04:13:16;1.90;69.50
14585;DHT22;7379;51.506;11.876;2023-03-12T04:15:46;1.90;69.50
14585;DHT22;7379;51.506;11.876;2023-03-12T04:18:13;1.90;69.50
14585;DHT22;7379;51.506;11.876;2023-03-12T04:20:40;1.90;69.50
14585;DHT22;7379;51.506;11.876;2023-03-12T04:23:06;1.90;69.50
14585;DHT22;7379;51.506;11.876;2023-03-12T04:25:33;1.90;69.50
14585;DHT22;7379;51.506;11.876;2023-03-12T04:28:01;1.90;69.50
14585;DHT22;7379;51.506;11.876;2023-03-12T04:30:28;1.90;69.50
14585;DHT22;7379;51.506;11.876;2023-03-12T04:32:55;1.90;69.50
14585;DHT22;7379;51.506;11.876;2023-03-12T04:35:22;1.90;69.60
14585;DHT22;7379;51.506;11.876;2023-03-12T04:37:49;1.90;69.60
14585;DHT22;7379;51.506;11.876;2023-03-12T04:40:16;1.90;69.60
14585;DHT22;7379;51.506;11.876;2023-03-12T04:42:44;1.90;69.60
14585;DHT22;7379;51.506;11.876;2023-03-12T04:45:13;1.90;69.60
14585;DHT22;7379;51.506;11.876;2023-03-12T04:47:39;1.80;69.50
14585;DHT22;7379;51.506;11.876;2023-03-12T04:50:07;1.80;69.60
14585;DHT22;7379;51.506;11.876;2023-03-12T04:52:34;1.80;69.60
14585;DHT22;7379;51.506;11.876;2023-03-12T04:55:01;1.80;69.60
14585;DHT22;7379;51.506;11.876;2023-03-12T04:57:28;1.80;69.60
14585;DHT22;7379;51.506;11.876;2023-03-12T04:59:54;1.80;69.60
14585;DHT22;7379;51.506;11.876;2023-03-12T05:02:23;1.80;69.60
14585;DHT22;7379;51.506;11.876;2023-03-12T05:04:50;1.80;69.60
14585;DHT22;7379;51.506;11.876;2023-03-12T05:07:16;1.80;69.60
14585;DHT22;7379;51.506;11.876;2023-03-12T05:09:44;1.80;69.60
14585;DHT22;7379;51.506;11.876;2023-03-12T05:12:11;1.80;69.60
14585;DHT22;7379;51.506;11.876;2023-03-12T05:14:38;1.80;69.60
14585;DHT22;7379;51.506;11.876;2023-03-12T05:17:05;1.80;69.60
14585;DHT22;7379;51.506;11.876;2023-03-12T05:19:33;1.80;69.60
14585;DHT22;7379;51.506;11.876;2023-03-12T05:22:00;1.80;69.50
14585;DHT22;7379;51.506;11.876;2023-03-12T05:24:26;1.80;69.50
14585;DHT22;7379;51.506;11.876;2023-03-12T05:26:53;1.80;69.50
14585;DHT22;7379;51.506;11.876;2023-03-12T05:29:20;1.80;69.50
14585;DHT22;7379;51.506;11.876;2023-03-12T05:31:47;1.70;69.40
14585;DHT22;7379;51.506;11.876;2023-03-12T05:34:14;1.70;69.40
14585;DHT22;7379;51.506;11.876;2023-03-12T05:36:42;1.70;69.40
14585;DHT22;7379;51.506;11.876;2023-03-12T05:39:09;1.70;69.40
14585;DHT22;7379;51.506;11.876;2023-03-12T05:41:36;1.70;69.40
14585;DHT22;7379;51.506;11.876;2023-03-12T05:44:03;1.70;69.40
14585;DHT22;7379;51.506;11.876;2023-03-12T05:46:30;1.70;69.40
14585;DHT22;7379;51.506;11.876;2023-03-12T05:48:57;1.70;69.40
14585;DHT22;7379;51.506;11.876;2023-03-12T05:51:24;1.70;69.30
14585;DHT22;7379;51.506;11.876;2023-03-12T05:53:52;1.70;69.30
14585;DHT22;7379;51.506;11.876;2023-03-12T05:56:19;1.70;69.20
14585;DHT22;7379;51.506;11.876;2023-03-12T05:58:47;1.70;69.20
14585;DHT22;7379;51.506;11.876;2023-03-12T06:01:16;1.70;69.20
14585;DHT22;7379;51.506;11.876;2023-03-12T06:03:43;1.70;69.20
14585;DHT22;7379;51.506;11.876;2023-03-12T06:06:10;1.70;69.20
14585;DHT22;7379;51.506;11.876;2023-03-12T06:08:37;1.70;69.20
14585;DHT22;7379;51.506;11.876;2023-03-12T06:11:05;1.70;69.20
14585;DHT22;7379;51.506;11.876;2023-03-12T06:13:33;1.60;69.20
14585;DHT22;7379;51.506;11.876;2023-03-12T06:16:04;1.60;69.20
14585;DHT22;7379;51.506;11.876;2023-03-12T06:18:32;1.60;69.20
14585;DHT22;7379;51.506;11.876;2023-03-12T06:21:09;1.60;69.20
14585;DHT22;7379;51.506;11.876;2023-03-12T06:23:37;1.60;69.30
14585;DHT22;7379;51.506;11.876;2023-03-12T06:26:05;1.60;69.20
14585;DHT22;7379;51.506;11.876;2023-03-12T06:28:32;1.70;69.30
14585;DHT22;7379;51.506;11.876;2023-03-12T06:31:00;1.60;69.30
14585;DHT22;7379;51.506;11.876;2023-03-12T06:33:27;1.70;69.40
14585;DHT22;7379;51.506;11.876;2023-03-12T06:35:54;1.70;69.40
14585;DHT22;7379;51.506;11.876;2023-03-12T06:38:21;1.70;69.50
14585;DHT22;7379;51.506;11.876;2023-03-12T06:40:55;1.70;69.40
14585;DHT22;7379;51.506;11.876;2023-03-12T06:43:24;1.70;69.40
14585;DHT22;7379;51.506;11.876;2023-03-12T06:45:53;1.70;69.40
14585;DHT22;7379;51.506;11.876;2023-03-12T06:48:20;1.70;69.40
14585;DHT22;7379;51.506;11.876;2023-03-12T06:50:47;1.70;69.30
14585;DHT22;7379;51.506;11.876;2023-03-12T06:53:14;1.70;69.30
14585;DHT22;7379;51.506;11.876;2023-03-12T06:55:42;1.70;69.30
14585;DHT22;7379;51.506;11.876;2023-03-12T06:58:09;1.70;69.30
14585;DHT22;7379;51.506;11.876;2023-03-12T07:00:37;1.70;69.40
14585;DHT22;7379;51.506;11.876;2023-03-12T07:03:04;1.70;69.40
14585;DHT22;7379;51.506;11.876;2023-03-12T07:05:31;1.70;69.40
14585;DHT22;7379;51.506;11.876;2023-03-12T07:07:58;1.70;69.30
14585;DHT22;7379;51.506;11.876;2023-03-12T07:10:25;1.70;69.40
14585;DHT22;7379;51.506;11.876;2023-03-12T07:12:52;1.70;69.40
14585;DHT22;7379;51.506;11.876;2023-03-12T07:15:19;1.70;69.40
14585;DHT22;7379;51.506;11.876;2023-03-12T07:17:48;1.70;69.50
14585;DHT22;7379;51.506;11.876;2023-03-12T07:20:15;1.70;69.50
14585;DHT22;7379;51.506;11.876;2023-03-12T07:22:42;1.70;69.60
14585;DHT22;7379;51.506;11.876;2023-03-12T07:25:09;1.70;69.60
14585;DHT22;7379;51.506;11.876;2023-03-12T07:27:36;1.70;69.60
14585;DHT22;7379;51.506;11.876;2023-03-12T07:30:04;1.70;69.60
14585;DHT22;7379;51.506;11.876;2023-03-12T07:32:31;1.80;69.70
14585;DHT22;7379;51.506;11.876;2023-03-12T07:35:00;1.80;69.70
14585;DHT22;7379;51.506;11.876;2023-03-12T07:37:27;1.80;69.70
14585;DHT22;7379;51.506;11.876;2023-03-12T07:39:53;1.80;69.60
14585;DHT22;7379;51.506;11.876;2023-03-12T07:42:21;1.80;69.60
14585;DHT22;7379;51.506;11.876;2023-03-12T07:44:48;1.80;69.60
14585;DHT22;7379;51.506;11.876;2023-03-12T07:47:14;1.80;69.60
14585;DHT22;7379;51.506;11.876;2023-03-12T07:49:41;1.80;70.40
14585;DHT22;7379;51.506;11.876;2023-03-12T07:52:09;1.80;69.50
14585;DHT22;7379;51.506;11.876;2023-03-12T07:54:37;1.90;69.50
14585;DHT22;7379;51.506;11.876;2023-03-12T07:57:04;1.90;69.50
14585;DHT22;7379;51.506;11.876;2023-03-12T07:59:31;1.90;69.50
14585;DHT22;7379;51.506;11.876;2023-03-12T08:01:58;1.90;70.20
14585;DHT22;7379;51.506;11.876;2023-03-12T08:04:25;1.90;69.50
14585;DHT22;7379;51.506;11.876;2023-03-12T08:06:51;1.90;69.50
14585;DHT22;7379;51.506;11.876;2023-03-12T08:09:20;1.90;69.50
14585;DHT22;7379;51.506;11.876;2023-03-12T08:11:46;1.90;70.30
14585;DHT22;7379;51.506;11.876;2023-03-12T08:14:13;2.00;69.60
14585;DHT22;7379;51.506;11.876;2023-03-12T08:16:40;2.00;69.60
14585;DHT22;7379;51.506;11.876;2023-03-12T08:19:07;2.00;69.60
14585;DHT22;7379;51.506;11.876;2023-03-12T08:21:33;2.00;69.60
14585;DHT22;7379;51.506;11.876;2023-03-12T08:24:00;2.00;69.60
14585;DHT22;7379;51.506;11.876;2023-03-12T08:26:28;2.00;69.60
14585;DHT22;7379;51.506;11.876;2023-03-12T08:28:55;2.10;69.60
14585;DHT22;7379;51.506;11.876;2023-03-12T08:31:24;2.10;69.60
14585;DHT22;7379;51.506;11.876;2023-03-12T08:33:51;2.10;69.50
14585;DHT22;7379;51.506;11.876;2023-03-12T08:36:18;2.10;69.50
14585;DHT22;7379;51.506;11.876;2023-03-12T08:38:45;2.10;69.50
14585;DHT22;7379;51.506;11.876;2023-03-12T08:41:12;2.10;69.50
14585;DHT22;7379;51.506;11.876;2023-03-12T08:43:40;2.10;69.50
14585;DHT22;7379;51.506;11.876;2023-03-12T08:46:07;2.10;69.50
14585;DHT22;7379;51.506;11.876;2023-03-12T08:48:33;2.10;69.60
14585;DHT22;7379;51.506;11.876;2023-03-12T08:51:01;2.10;69.50
14585;DHT22;7379;51.506;11.876;2023-03-12T08:53:29;2.20;69.70
14585;DHT22;7379;51.506;11.876;2023-03-12T08:55:56;2.20;69.70
14585;DHT22;7379;51.506;11.876;2023-03-12T08:58:24;2.20;69.70
14585;DHT22;7379;51.506;11.876;2023-03-12T09:00:53;2.20;69.70
14585;DHT22;7379;51.506;11.876;2023-03-12T09:03:21;2.20;69.70
14585;DHT22;7379;51.506;11.876;2023-03-12T09:05:48;2.30;69.70
14585;DHT22;7379;51.506;11.876;2023-03-12T09:08:16;2.30;69.70
14585;DHT22;7379;51.506;11.876;2023-03-12T09:10:47;2.30;69.70
14585;DHT22;7379;51.506;11.876;2023-03-12T09:13:14;2.30;69.70
14585;DHT22;7379;51.506;11.876;2023-03-12T09:15:41;2.30;69.70
14585;DHT22;7379;51.506;11.876;2023-03-12T09:18:09;2.20;69.60
14585;DHT22;7379;51.506;11.876;2023-03-12T09:20:36;2.30;69.60
14585;DHT22;7379;51.506;11.876;2023-03-12T09:23:03;2.30;69.50
14585;DHT22;7379;51.506;11.876;2023-03-12T09:25:30;2.40;69.50
14585;DHT22;7379;51.506;11.876;2023-03-12T09:27:57;2.40;69.30
14585;DHT22;7379;51.506;11.876;2023-03-12T09:30:26;2.50;69.30
14585;DHT22;7379;51.506;11.876;2023-03-12T09:32:54;2.50;68.90
14585;DHT22;7379;51.506;11.876;2023-03-12T09:35:22;2.50;68.80
14585;DHT22;7379;51.506;11.876;2023-03-12T09:37:50;2.60;69.40
14585;DHT22;7379;51.506;11.876;2023-03-12T09:40:19;2.60;68.70
14585;DHT22;7379;51.506;11.876;2023-03-12T09:42:51;2.70;68.30
14585;DHT22;7379;51.506;11.876;2023-03-12T09:45:21;2.70;68.60
14585;DHT22;7379;51.506;11.876;2023-03-12T09:47:51;2.70;68.60
14585;DHT22;7379;51.506;11.876;2023-03-12T09:50:23;2.70;68.50
14585;DHT22;7379;51.506;11.876;2023-03-12T09:52:55;2.80;68.40
14585;DHT22;7379;51.506;11.876;2023-03-12T09:55:24;2.80;68.30
14585;DHT22;7379;51.506;11.876;2023-03-12T09:57:51;2.90;68.20
14585;DHT22;7379;51.506;11.876;2023-03-12T10:00:20;2.90;68.30
14585;DHT22;7379;51.506;11.876;2023-03-12T10:03:15;2.90;68.40
14585;DHT22;7379;51.506;11.876;2023-03-12T10:06:02;2.90;68.40
14585;DHT22;7379;51.506;11.876;2023-03-12T10:08:38;2.90;68.00
14585;DHT22;7379;51.506;11.876;2023-03-12T10:11:16;2.90;67.50
14585;DHT22;7379;51.506;11.876;2023-03-12T10:13:56;2.90;67.50
14585;DHT22;7379;51.506;11.876;2023-03-12T10:16:37;2.90;67.10
14585;DHT22;7379;51.506;11.876;2023-03-12T10:19:23;3.00;67.30
14585;DHT22;7379;51.506;11.876;2023-03-12T10:22:00;3.00;68.20
14585;DHT22;7379;51.506;11.876;2023-03-12T10:24:40;3.00;67.70
14585;DHT22;7379;51.506;11.876;2023-03-12T10:27:12;3.00;67.40
14585;DHT22;7379;51.506;11.876;2023-03-12T10:29:41;3.10;67.40
14585;DHT22;7379;51.506;11.876;2023-03-12T10:32:14;3.10;67.60
14585;DHT22;7379;51.506;11.876;2023-03-12T10:34:44;3.10;67.50
14585;DHT22;7379;51.506;11.876;2023-03-12T10:37:17;3.20;67.20
14585;DHT22;7379;51.506;11.876;2023-03-12T10:39:46;3.20;66.90
14585;DHT22;7379;51.506;11.876;2023-03-12T10:42:16;3.20;67.00
14585;DHT22;7379;51.506;11.876;2023-03-12T10:44:44;3.20;66.60
14585;DHT22;7379;51.506;11.876;2023-03-12T10:47:29;3.20;65.90
14585;DHT22;7379;51.506;11.876;2023-03-12T10:50:12;3.30;65.60
14585;DHT22;7379;51.506;11.876;2023-03-12T10:52:41;3.30;66.20
14585;DHT22;7379;51.506;11.876;2023-03-12T10:55:15;3.30;66.20
14585;DHT22;7379;51.506;11.876;2023-03-12T10:57:46;3.30;65.70
14585;DHT22;7379;51.506;11.876;2023-03-12T11:00:18;3.30;65.70
14585;DHT22;7379;51.506;11.876;2023-03-12T11:02:55;3.30;66.10
14585;DHT22;7379;51.506;11.876;2023-03-12T11:05:24;3.30;66.10
14585;DHT22;7379;51.506;11.876;2023-03-12T11:07:53;3.30;66.00
14585;DHT22;7379;51.506;11.876;2023-03-12T11:10:23;3.40;65.60
14585;DHT22;7379;51.506;11.876;2023-03-12T11:12:53;3.40;65.60
14585;DHT22;7379;51.506;11.876;2023-03-12T11:15:22;3.40;65.70
14585;DHT22;7379;51.506;11.876;2023-03-12T11:17:51;3.50;65.50
14585;DHT22;7379;51.506;11.876;2023-03-12T11:20:24;3.50;65.50
14585;DHT22;7379;51.506;11.876;2023-03-12T11:22:52;3.50;65.70
14585;DHT22;7379;51.506;11.876;2023-03-12T11:25:22;3.50;65.50
14585;DHT22;7379;51.506;11.876;2023-03-12T11:27:51;3.60;65.60
14585;DHT22;7379;51.506;11.876;2023-03-12T11:30:22;3.60;65.40
14585;DHT22;7379;51.506;11.876;2023-03-12T11:32:50;3.60;65.60
14585;DHT22;7379;51.506;11.876;2023-03-12T11:35:21;3.70;65.70
14585;DHT22;7379;51.506;11.876;2023-03-12T11:38:03;3.70;65.70
14585;DHT22;7379;51.506;11.876;2023-03-12T11:40:47;3.70;65.20
14585;DHT22;7379;51.506;11.876;2023-03-12T11:43:28;3.70;65.20
14585;DHT22;7379;51.506;11.876;2023-03-12T11:46:10;3.70;65.20
14585;DHT22;7379;51.506;11.876;2023-03-12T11:48:52;3.70;64.60
14585;DHT22;7379;51.506;11.876;2023-03-12T11:51:31;3.80;65.00
14585;DHT22;7379;51.506;11.876;2023-03-12T11:54:19;3.80;64.50
14585;DHT22;7379;51.506;11.876;2023-03-12T11:56:50;3.80;64.50
14585;DHT22;7379;51.506;11.876;2023-03-12T11:59:32;3.90;64.50
14585;DHT22;7379;51.506;11.876;2023-03-12T12:02:12;3.90;64.70
14585;DHT22;7379;51.506;11.876;2023-03-12T12:07:41;4.00;64.60
14585;DHT22;7379;51.506;11.876;2023-03-12T12:10:23;4.00;64.80
14585;DHT22;7379;51.506;11.876;2023-03-12T12:12:58;3.90;64.90
14585;DHT22;7379;51.506;11.876;2023-03-12T12:15:42;3.90;65.30
14585;DHT22;7379;51.506;11.876;2023-03-12T12:18:33;3.90;65.30
14585;DHT22;7379;51.506;11.876;2023-03-12T12:21:11;3.90;65.40
14585;DHT22;7379;51.506;11.876;2023-03-12T12:23:46;3.90;65.40
14585;DHT22;7379;51.506;11.876;2023-03-12T12:26:19;3.90;65.50
14585;DHT22;7379;51.506;11.876;2023-03-12T12:29:08;3.90;65.40
14585;DHT22;7379;51.506;11.876;2023-03-12T12:31:42;3.90;65.70
14585;DHT22;7379;51.506;11.876;2023-03-12T12:34:43;3.90;65.40
14585;DHT22;7379;51.506;11.876;2023-03-12T12:37:19;4.00;65.30
14585;DHT22;7379;51.506;11.876;2023-03-12T12:39:51;4.00;65.40
14585;DHT22;7379;51.506;11.876;2023-03-12T12:42:23;4.00;65.30
14585;DHT22;7379;51.506;11.876;2023-03-12T12:44:53;4.00;65.50
14585;DHT22;7379;51.506;11.876;2023-03-12T12:47:27;4.00;65.10
14585;DHT22;7379;51.506;11.876;2023-03-12T12:49:57;4.00;65.20
14585;DHT22;7379;51.506;11.876;2023-03-12T12:52:25;4.00;65.60
14585;DHT22;7379;51.506;11.876;2023-03-12T12:54:58;4.00;65.30
14585;DHT22;7379;51.506;11.876;2023-03-12T12:57:34;4.00;65.20
14585;DHT22;7379;51.506;11.876;2023-03-12T13:00:20;4.00;65.10
14585;DHT22;7379;51.506;11.876;2023-03-12T13:02:50;4.10;65.50
14585;DHT22;7379;51.506;11.876;2023-03-12T13:05:20;4.10;66.30
14585;DHT22;7379;51.506;11.876;2023-03-12T13:07:47;4.10;65.70
14585;DHT22;7379;51.506;11.876;2023-03-12T13:10:41;4.10;66.00
14585;DHT22;7379;51.506;11.876;2023-03-12T13:13:12;4.00;66.30
14585;DHT22;7379;51.506;11.876;2023-03-12T13:15:43;4.00;66.80
14585;DHT22;7379;51.506;11.876;2023-03-12T13:18:22;4.00;67.10
14585;DHT22;7379;51.506;11.876;2023-03-12T13:21:18;4.00;67.70
14585;DHT22;7379;51.506;11.876;2023-03-12T13:23:54;3.90;67.80
14585;DHT22;7379;51.506;11.876;2023-03-12T13:26:28;3.90;68.30
14585;DHT22;7379;51.506;11.876;2023-03-12T13:29:10;3.90;68.40
14585;DHT22;7379;51.506;11.876;2023-03-12T13:31:39;3.90;68.70
14585;DHT22;7379;51.506;11.876;2023-03-12T13:34:29;3.90;69.10
14585;DHT22;7379;51.506;11.876;2023-03-12T13:36:58;3.90;69.40
14585;DHT22;7379;51.506;11.876;2023-03-12T13:39:29;3.90;70.00
14585;DHT22;7379;51.506;11.876;2023-03-12T13:41:57;4.00;70.20
14585;DHT22;7379;51.506;11.876;2023-03-12T13:44:37;4.00;70.00
14585;DHT22;7379;51.506;11.876;2023-03-12T13:47:19;4.00;69.80
14585;DHT22;7379;51.506;11.876;2023-03-12T13:49:52;4.10;70.20
14585;DHT22;7379;51.506;11.876;2023-03-12T13:52:22;4.10;70.20
14585;DHT22;7379;51.506;11.876;2023-03-12T13:54:58;4.10;70.00
14585;DHT22;7379;51.506;11.876;2023-03-12T13:57:35;4.10;70.10
14585;DHT22;7379;51.506;11.876;2023-03-12T14:00:14;4.10;70.00
14585;DHT22;7379;51.506;11.876;2023-03-12T14:02:45;4.10;70.00
14585;DHT22;7379;51.506;11.876;2023-03-12T14:05:14;4.10;70.30
14585;DHT22;7379;51.506;11.876;2023-03-12T14:10:51;4.10;70.90
14585;DHT22;7379;51.506;11.876;2023-03-12T14:13:38;4.10;71.50
14585;DHT22;7379;51.506;11.876;2023-03-12T14:16:14;4.10;71.40
14585;DHT22;7379;51.506;11.876;2023-03-12T14:18:45;4.10;71.30
14585;DHT22;7379;51.506;11.876;2023-03-12T14:21:15;4.10;71.30
14585;DHT22;7379;51.506;11.876;2023-03-12T14:23:45;4.10;71.50
14585;DHT22;7379;51.506;11.876;2023-03-12T14:26:19;4.10;71.50
14585;DHT22;7379;51.506;11.876;2023-03-12T14:28:54;4.10;71.50
14585;DHT22;7379;51.506;11.876;2023-03-12T14:31:25;4.10;71.50
14585;DHT22;7379;51.506;11.876;2023-03-12T14:33:57;4.10;71.70
14585;DHT22;7379;51.506;11.876;2023-03-12T14:36:26;4.10;72.70
14585;DHT22;7379;51.506;11.876;2023-03-12T14:39:00;4.10;71.90
14585;DHT22;7379;51.506;11.876;2023-03-12T14:41:35;4.10;72.10
14585;DHT22;7379;51.506;11.876;2023-03-12T14:44:21;4.10;72.20
14585;DHT22;7379;51.506;11.876;2023-03-12T14:46:56;4.10;72.20
14585;DHT22;7379;51.506;11.876;2023-03-12T14:49:23;4.10;72.40
14585;DHT22;7379;51.506;11.876;2023-03-12T14:51:50;4.10;72.40
14585;DHT22;7379;51.506;11.876;2023-03-12T14:54:18;4.10;72.30
14585;DHT22;7379;51.506;11.876;2023-03-12T14:56:47;4.10;72.30
14585;DHT22;7379;51.506;11.876;2023-03-12T14:59:23;4.10;72.40
14585;DHT22;7379;51.506;11.876;2023-03-12T15:01:51;4.10;72.40
14585;DHT22;7379;51.506;11.876;2023-03-12T15:04:21;4.10;72.50
14585;DHT22;7379;51.506;11.876;2023-03-12T15:06:51;4.10;72.50
14585;DHT22;7379;51.506;11.876;2023-03-12T15:09:22;4.10;72.60
14585;DHT22;7379;51.506;11.876;2023-03-12T15:11:52;4.10;72.80
14585;DHT22;7379;51.506;11.876;2023-03-12T15:14:20;4.10;72.90
14585;DHT22;7379;51.506;11.876;2023-03-12T15:16:49;4.20;73.00
14585;DHT22;7379;51.506;11.876;2023-03-12T15:19:20;4.20;73.20
14585;DHT22;7379;51.506;11.876;2023-03-12T15:21:48;4.20;73.20
14585;DHT22;7379;51.506;11.876;2023-03-12T15:24:16;4.20;73.00
14585;DHT22;7379;51.506;11.876;2023-03-12T15:26:43;4.20;72.80
14585;DHT22;7379;51.506;11.876;2023-03-12T15:29:20;4.20;72.80
14585;DHT22;7379;51.506;11.876;2023-03-12T15:31:51;4.20;72.80
14585;DHT22;7379;51.506;11.876;2023-03-12T15:34:32;4.20;72.70
14585;DHT22;7379;51.506;11.876;2023-03-12T15:37:01;4.20;72.80
14585;DHT22;7379;51.506;11.876;2023-03-12T15:39:30;4.20;72.90
14585;DHT22;7379;51.506;11.876;2023-03-12T15:42:01;4.20;73.00
14585;DHT22;7379;51.506;11.876;2023-03-12T15:44:43;4.20;73.00
14585;DHT22;7379;51.506;11.876;2023-03-12T15:47:13;4.20;73.20
14585;DHT22;7379;51.506;11.876;2023-03-12T15:49:43;4.20;73.30
14585;DHT22;7379;51.506;11.876;2023-03-12T15:52:28;4.20;73.20
14585;DHT22;7379;51.506;11.876;2023-03-12T15:55:01;4.20;73.30
14585;DHT22;7379;51.506;11.876;2023-03-12T15:57:29;4.20;73.30
14585;DHT22;7379;51.506;11.876;2023-03-12T16:00:17;4.20;73.50
14585;DHT22;7379;51.506;11.876;2023-03-12T16:02:53;4.20;73.70
14585;DHT22;7379;51.506;11.876;2023-03-12T16:05:25;4.20;73.80
14585;DHT22;7379;51.506;11.876;2023-03-12T16:07:52;4.20;73.90
14585;DHT22;7379;51.506;11.876;2023-03-12T16:10:21;4.20;74.90